Airfield :
LOGIN :

Register | Disclaimer

   EN    FR    IT 

 










Legend :    VFR   Marginal VFR   IFR   Intensive IFR   Very Intensive IFR
Visi :
Ceiling :
>= 8 km
>= 3000ft
5 to 8 km
1000 to 3000 ft
1500m to 5 km
500 to 1000 ft
800 to 1500m
200 to 500 ft
< 800m
< 200 ft
Symbols :   Thunderstorms  Fog  Heavy snow  Heavy precipitations  Wind > 20 kt
SIGMETs :     Misc.  Thunderstorms  Icing  Turbulence  Mountain Waves  Volcanic Ashes







- Airport Elevation : 226 ft
- IATA code : BEX


EGUB - RAF Benson

CURRENT METAR :
  • 192150Z 21010KT 9999 FEW010 BKN032 15/14 Q1014 BLU BECMG BKN020 WHT

EXPIRED METARs :
  • 192131Z 20006KT 9999 SCT010 BKN035 15/15 Q1014 GRN TEMPO FEW010 BKN035 BLU
  • 192050Z 21007KT 8000 -RA FEW018 BKN030 15/14 Q1014 BLU TEMPO 6000 WHT
  • 191942Z 25006KT 8000 -RADZ FEW007 SCT014 BKN035 15/14 Q1014 GRN BECMG 9999 NSW FEW014 BKN030 BLU
  • 191927Z 24008KT 4000 RADZ FEW010 SCT018 BKN030 15/14 Q1014 GRN BECMG 9999 NSW FEW018 BKN030 BLU

TAF AMD TAF EGUB
Valid from the 19 at 21:00 until the 20 at 01:00 UTC


192017Z 1921/2001 21006KT 9999 BKN035
PROB30
TEMPO 1921/1923 7000 -RA
BECMG 1923/2001 BKN020
ATIS : +44 1491-837766 (x7524)
No reported NOTAMs for that airfield.
2 SIGMETs reported for the London FIR (EGTT) :
 
Severe turbulence
EGTT SIGMET 15 VALID 192132/200100 EGRR
EGTT LONDON FIR SEV TURB FCST NW OF LINE N5355 W00530 - N5500 E00000 SFC/FL060 MOV N 05KT WKN=
Severe mountain waves
EGTT SIGMET 14 VALID 192100/200100 EGRR
EGTT LONDON FIR SEV MTW FCST WI N5500 E00020 - N5347 E00134 - N5220 W00344 - N5357 W00530 - N5500 W00530 - N5500 E00020 FL030/250 STNR NC=



MET'MAP, your aeronautical weather chart ! - Copyright ORBIFLY December 2007 - Disclaimer

ORBIFLY MET'MAP TEAM :

Programming & Development : Alexandra Zaïnal
Concept & Development : Baudouin d'Aumeries
Co-Development & Prog : Marc-Olivier Méhu
Technical & hardware support : Manuel Goepfert

Contact : metmap@orbifly.com




SOURCES & CREDITS :

   NOAA